Latest Coastal Weather Observations for Portland Airport

IDS60701

Issued at 3:41 pm CDT Monday 6 December 2021 (issued every 10 minutes, with the page automatically refreshed every 10 minutes)

About coastal observations | Map of coastal stations | Coastal observations for SA | Marine services | Other Formats
Station Details ID: 090171 Name: CASHMORE AIRPORT Lat: -38.31 Lon: 141.47 Height: 80.9 m
Data from the previous 72 hours. | See also: Recent months at Portland Airport
Date/Time
CDT
Wind Sea
Height
m
Swell Vis
km
Cloud Weather Temp
°C
Press
MSL
hPa
Rain since
9am
mm
Dir  Spd
kts
Gust
kts
Height
m
Period
s
Dir
06/03:30pm WSW 19 23 - - - - 10 Clear - 18.2 1009.8 0.0
06/03:00pm W 20 26 - - - - 10 - - 19.2 1009.7 0.0
06/02:30pm W 19 24 - - - - 10 - - 19.2 1009.7 0.0
06/02:00pm W 18 23 - - - - 10 - - 19.4 1009.7 0.0
06/01:30pm W 17 21 - - - - 10 - - 19.4 1010.0 0.0
06/01:00pm W 13 18 - - - - 10 - - 20.3 1010.1 0.0
06/12:30pm W 15 19 - - - - 10 - - 20.0 1010.5 0.0
06/12:00pm W 12 14 - - - - 10 - - 21.5 1010.5 0.0
06/11:30am W 9 13 - - - - 10 - - 23.1 1010.3 0.0
06/11:00am NW 7 11 - - - - 10 - - 23.6 1010.6 0.0
06/10:30am N 9 12 - - - - 10 - - 22.5 1011.0 0.0
06/10:00am N 7 9 - - - - 10 - - 21.1 1011.4 0.0
06/09:30am N 4 6 - - - - 10 - - 19.0 1011.7 0.0
06/09:00am N 6 8 - - - - 10 - - 17.4 1012.1 0.0
06/08:30am NNE 7 10 - - - - 10 - - 15.8 1012.0 0.0
06/08:00am NNE 6 9 - - - - 10 - - 14.9 1012.2 0.0
06/07:30am NNE 5 6 - - - - 10 - - 13.5 1012.3 0.0
06/07:00am NE 4 5 - - - - 10 - - 11.1 1012.3 0.0
06/06:30am NE 4 6 - - - - 10 Partly cloudy - 9.3 1012.7 0.0
06/06:00am NNE 4 5 - - - - 10 Partly cloudy - 8.4 1012.8 0.0
06/05:30am NNE 5 6 - - - - 10 - - 8.0 1012.9 0.0
06/05:00am NNE 4 5 - - - - 10 - - 8.4 1013.0 0.0
06/04:30am NNE 5 6 - - - - 10 - - 9.0 1013.3 0.0
06/04:00am NNE 5 6 - - - - 10 - - 8.9 1013.5 0.0
06/03:30am NE 5 6 - - - - 10 - - 9.0 1013.7 0.0
06/03:00am NNE 5 6 - - - - 10 - - 8.7 1014.0 0.0
06/02:30am NE 4 5 - - - - 10 - - 8.8 1014.0 0.0
06/02:00am ENE 4 6 - - - - 10 - - 10.3 1014.5 0.0
06/01:30am ESE 3 4 - - - - 10 - - 9.0 1015.2 0.0
06/01:00am CALM 0 3 - - - - 10 - - 8.9 1015.7 0.0
06/12:30am ESE 3 4 - - - - 10 - - 9.5 1016.3 0.0
06/12:00am E 4 5 - - - - 10 - - 9.8 1016.7 0.0
 
Date/Time
CDT
Wind Sea
Height
m
Swell Vis
km
Cloud Weather Temp
°C
Press
MSL
hPa
Rain since
9am
mm
Dir  Spd
kts
Gust
kts
Height
m
Period
s
Dir
05/11:30pm ESE 4 6 - - - - 10 - - 10.2 1017.1 0.0
05/11:00pm ESE 6 8 - - - - 10 - - 10.7 1017.3 0.0
05/10:30pm SE 6 7 - - - - 10 - - 10.7 1017.6 0.0
05/10:00pm SE 6 8 - - - - 10 - - 10.5 1017.7 0.0
05/09:30pm SE 6 7 - - - - 10 - - 11.1 1018.0 0.0
05/09:00pm SE 6 8 - - - - 10 - - 10.9 1018.4 0.0
05/08:30pm SE 6 7 - - - - 10 - - 11.9 1018.7 0.0
05/08:00pm ESE 8 12 - - - - 10 - - 12.6 1018.7 0.0
05/07:30pm ESE 11 15 - - - - 10 - - 13.4 1018.7 0.0
05/07:00pm SE 10 15 - - - - 10 - - 14.0 1018.6 0.0
05/06:30pm SE 10 14 - - - - 10 - - 14.3 1018.7 0.0
05/06:00pm SE 9 12 - - - - 10 - - 15.1 1018.7 0.0
05/05:30pm ESE 11 15 - - - - 10 - - 15.3 1018.6 0.0
05/05:00pm ESE 10 16 - - - - 10 - - 15.5 1018.7 0.0
05/04:30pm SE 11 17 - - - - 10 - - 16.1 1018.8 0.0
05/04:00pm ESE 11 16 - - - - 10 - - 15.8 1019.0 0.0
05/03:30pm ESE 10 15 - - - - 10 - - 16.2 1019.4 0.0
05/03:00pm ESE 10 15 - - - - 10 - - 16.3 1019.5 0.0
05/02:30pm SE 11 16 - - - - 10 - - 16.1 1019.8 0.0
05/02:00pm ESE 9 15 - - - - 10 - - 17.0 1020.0 0.0
05/01:30pm ESE 9 13 - - - - 10 - - 16.6 1020.3 0.0
05/01:00pm E 10 15 - - - - 10 - - 16.2 1020.7 0.0
05/12:30pm ESE 9 16 - - - - 10 - - 15.6 1021.1 0.0
05/12:00pm E 10 15 - - - - 10 Partly cloudy - 15.8 1021.6 0.0
05/11:30am E 10 16 - - - - 10 Partly cloudy - 15.4 1021.9 0.0
05/11:00am ESE 9 13 - - - - 10 Partly cloudy - 15.0 1022.0 0.0
05/10:30am ENE 9 15 - - - - 10 Partly cloudy - 14.7 1022.2 0.0
05/10:00am E 8 13 - - - - 10 Partly cloudy - 15.6 1022.4 0.0
05/09:30am E 10 17 - - - - 10 Cloudy - 14.3 1022.6 0.0
05/09:00am E 10 15 - - - - 10 Partly cloudy - 14.9 1022.5 0.0
05/08:30am E 9 14 - - - - 10 Partly cloudy - 14.2 1022.5 0.8
05/08:00am ENE 7 11 - - - - 10 Partly cloudy - 13.7 1022.4 0.8
05/07:30am ENE 7 9 - - - - 10 Partly cloudy - 13.0 1022.2 0.8
05/07:00am SE 6 9 - - - - 10 - - 12.8 1022.1 0.8
05/06:30am E 1 4 - - - - 10 - - 10.3 1021.9 0.8
05/06:00am CALM 0 0 - - - - 10 - - 7.1 1021.7 0.8
05/05:30am CALM 0 5 - - - - 10 Partly cloudy - 7.3 1021.5 0.8
05/05:00am SSE 2 4 - - - - 10 - - 8.3 1021.5 0.8
05/04:30am SE 4 6 - - - - 10 - - 9.6 1021.7 0.8
05/04:00am SE 4 4 - - - - 10 - - 8.9 1021.7 0.8
05/03:30am SSE 1 3 - - - - 10 - - 8.0 1021.8 0.8
05/03:00am CALM 0 0 - - - - 10 - - 7.7 1022.0 0.8
05/02:30am CALM 0 0 - - - - 10 Partly cloudy - 8.0 1022.2 0.8
05/02:00am CALM 0 0 - - - - 10 Partly cloudy - 9.2 1022.6 0.8
05/01:30am CALM 0 0 - - - - 10 Partly cloudy - 10.2 1022.7 0.8
05/01:00am SSE 2 4 - - - - 10 Partly cloudy - 10.7 1022.8 0.8
05/12:30am SSE 2 4 - - - - 10 Partly cloudy - 11.0 1023.2 0.8
05/12:00am SE 4 5 - - - - 10 Partly cloudy - 11.2 1022.9 0.8
 
Date/Time
CDT
Wind Sea
Height
m
Swell Vis
km
Cloud Weather Temp
°C
Press
MSL
hPa
Rain since
9am
mm
Dir  Spd
kts
Gust
kts
Height
m
Period
s
Dir
04/11:30pm SE 3 5 - - - - 10 Mostly cloudy - 11.3 1023.0 0.8
04/11:00pm CALM 0 0 - - - - 10 Cloudy - 11.3 1023.0 0.8
04/10:30pm SE 3 5 - - - - 10 Cloudy - 11.6 1023.2 0.8
04/10:00pm SE 6 8 - - - - 10 Cloudy - 12.2 1023.3 0.8
04/09:30pm SE 5 7 - - - - 10 Cloudy - 12.5 1023.2 0.8
04/09:00pm SE 4 7 - - - - 10 Cloudy - 12.4 1022.9 0.8
04/08:30pm SE 6 9 - - - - 10 Cloudy - 12.9 1022.9 0.8
04/08:00pm SE 8 11 - - - - 10 Partly cloudy - 13.2 1022.7 0.8
04/07:30pm SE 8 11 - - - - 10 Partly cloudy - 13.8 1022.6 0.8
04/07:00pm SSE 7 10 - - - - 10 Partly cloudy - 14.1 1022.3 0.8
04/06:30pm S 7 12 - - - - 10 Partly cloudy - 14.8 1022.0 0.8
04/06:00pm SSE 9 12 - - - - 10 Partly cloudy - 15.1 1021.6 0.8
04/05:30pm SSE 8 12 - - - - 10 Cloudy - 15.0 1021.5 0.8
04/05:00pm S 8 11 - - - - 10 Partly cloudy - 14.8 1021.5 0.8
04/04:30pm S 8 14 - - - - 10 Partly cloudy - 15.0 1021.5 0.8
04/04:00pm S 8 13 - - - - 10 Partly cloudy - 15.5 1021.7 0.8
04/03:30pm S 8 12 - - - - 10 Partly cloudy - 15.4 1021.8 0.8
04/03:00pm S 8 13 - - - - 10 Partly cloudy - 14.6 1021.9 0.8
04/02:30pm SSW 11 16 - - - - 10 Cloudy - 14.6 1021.8 0.8
04/02:16pm SSW 10 15 - - - - 10 Partly cloudy - 14.2 1021.7 0.8
04/02:00pm S 9 16 - - - - 10 Partly cloudy - 15.2 1021.6 0.8
04/01:30pm S 9 14 - - - - 10 Partly cloudy - 14.9 1021.7 0.8
04/01:00pm S 8 15 - - - - 10 Partly cloudy - 14.8 1021.8 0.8
04/12:30pm SSW 10 16 - - - - 6 Partly cloudy - 13.4 1022.0 0.8
04/12:00pm SW 11 17 - - - - 10 Partly cloudy - 14.4 1022.0 0.2
04/11:30am WSW 10 16 - - - - 10 Cloudy Recent precip. 14.6 1021.8 0.2
04/11:24am WSW 9 13 - - - - 10 Partly cloudy - 15.0 1021.8 0.2
04/11:05am SW 12 18 - - - - 5 Partly cloudy - 13.6 1021.9 0.2
04/11:00am SW 12 18 - - - - 10 Partly cloudy - 13.6 1021.8 0.0
04/10:30am WSW 12 17 - - - - 10 Partly cloudy - 15.5 1021.3 0.0
04/10:00am SW 10 15 - - - - 10 Partly cloudy - 16.0 1021.2 0.0
04/09:30am SW 12 17 - - - - 10 Partly cloudy - 14.2 1021.2 0.0
04/09:00am WSW 12 16 - - - - 10 Partly cloudy - 13.6 1021.0 0.0
04/08:30am WSW 11 18 - - - - 10 Cloudy - 14.3 1020.6 0.0
04/08:00am WSW 12 17 - - - - 10 Partly cloudy - 14.6 1020.2 0.0
04/07:30am WSW 7 10 - - - - 10 Partly cloudy - 12.9 1020.0 0.0
04/07:14am WSW 8 11 - - - - 10 Partly cloudy - 11.8 1020.0 0.0
04/07:00am WSW 13 18 - - - - 4 Partly cloudy - 11.7 1019.9 0.0
04/06:54am WSW 15 22 - - - - 5 Partly cloudy - 11.9 1019.8 0.0
04/06:50am WSW 15 23 - - - - 8 Partly cloudy - 11.9 1019.8 0.0
04/06:30am SW 11 13 - - - - 10 Partly cloudy - 13.0 1019.5 0.0
04/06:00am WSW 9 13 - - - - 10 Cloudy - 12.7 1019.2 0.0
04/05:30am WSW 8 12 - - - - 10 Mostly cloudy - 12.3 1019.1 0.0
04/05:00am WSW 9 13 - - - - 10 Partly cloudy - 12.6 1018.9 0.0
04/04:30am SW 9 11 - - - - 10 Partly cloudy - 12.1 1018.8 0.0
04/04:00am WSW 9 12 - - - - 10 Partly cloudy - 11.7 1018.7 0.0
04/03:30am SW 7 11 - - - - 10 Partly cloudy - 12.6 1018.7 0.0
04/03:00am W 10 14 - - - - 10 Partly cloudy - 12.9 1018.8 0.0
04/02:30am WSW 9 12 - - - - 10 Cloudy - 12.7 1018.8 0.0
04/02:00am WSW 10 13 - - - - 10 Partly cloudy - 12.9 1019.0 0.0
04/01:30am WSW 8 12 - - - - 10 Partly cloudy - 12.6 1019.3 0.0
04/01:00am WSW 8 11 - - - - 10 Cloudy - 12.6 1019.5 0.0
04/12:30am WSW 7 9 - - - - 10 Cloudy - 12.3 1019.8 0.0
04/12:00am WSW 7 9 - - - - 10 Cloudy - 12.1 1020.0 0.0
 
Date/Time
CDT
Wind Sea
Height
m
Swell Vis
km
Cloud Weather Temp
°C
Press
MSL
hPa
Rain since
9am
mm
Dir  Spd
kts
Gust
kts
Height
m
Period
s
Dir
03/11:30pm WSW 7 10 - - - - 10 Mostly cloudy - 11.6 1020.2 0.0
03/11:00pm SW 6 7 - - - - 10 Cloudy - 11.9 1020.3 0.0
03/10:30pm SW 6 7 - - - - 10 Partly cloudy - 11.5 1020.4 0.0
03/10:00pm WSW 5 7 - - - - 10 Partly cloudy - 10.4 1020.4 0.0
03/09:30pm WSW 6 7 - - - - 10 Partly cloudy - 10.7 1020.3 0.0
03/09:00pm WSW 7 11 - - - - 10 Cloudy - 12.3 1020.2 0.0
03/08:30pm WSW 5 6 - - - - 10 Partly cloudy - 11.9 1020.1 0.0
03/08:00pm SW 6 8 - - - - 10 Partly cloudy - 12.5 1019.9 0.0
03/07:30pm WSW 8 12 - - - - 10 Cloudy - 13.5 1019.9 0.0
03/07:00pm WSW 9 13 - - - - 10 Partly cloudy - 13.7 1020.0 0.0
03/06:30pm WSW 9 13 - - - - 10 Partly cloudy - 14.5 1020.0 0.0
03/06:00pm WSW 11 14 - - - - 10 Partly cloudy - 14.9 1020.1 0.0
03/05:30pm SW 9 15 - - - - 10 Partly cloudy - 15.1 1020.0 0.0
03/05:00pm SW 12 18 - - - - 10 Partly cloudy - 14.7 1020.4 0.0
03/04:30pm SW 11 17 - - - - 10 Partly cloudy - 15.8 1020.4 0.0
03/04:00pm WSW 14 18 - - - - 10 Partly cloudy - 16.6 1020.5 0.0
03/03:30pm WSW 14 20 - - - - 10 Partly cloudy - 16.7 1020.7 0.0

Other formats

Comma delimited format used in spreadsheet applications
http://www.bom.gov.au/fwo/IDS60701/IDS60701.94828.axf

JavaScript Object Notation format (JSON) in row-major order
http://www.bom.gov.au/fwo/IDS60701/IDS60701.94828.json

Data quality

Most of these data are generated automatically and are frequently updated. Quality checks on data are not normally performed. It is possible for incorrect values to appear. Refer to information at About Latest Weather Observations and please check the disclaimer before using these data.